createdAt,value
2024-01-16T00:00:41.682Z,52.55
2024-01-16T00:05:44.493Z,50.05
2024-01-16T00:10:46.672Z,47.83
2024-01-16T00:15:49.103Z,50.80
2024-01-16T00:20:51.382Z,49.90
2024-01-16T00:25:53.554Z,50.65
2024-01-16T00:30:55.712Z,51.95
2024-01-16T00:35:57.900Z,52.40
2024-01-16T00:41:00.061Z,45.95
2024-01-16T00:46:02.377Z,51.00
2024-01-16T00:51:04.599Z,48.55
2024-01-16T00:56:06.810Z,49.70
2024-01-16T01:01:09.060Z,50.75
2024-01-16T01:06:11.347Z,49.97
2024-01-16T01:11:13.747Z,49.80
2024-01-16T01:16:15.997Z,49.33
2024-01-16T01:21:18.211Z,50.92
2024-01-16T01:26:20.562Z,50.85
2024-01-16T01:31:22.826Z,53.45
2024-01-16T01:36:25.087Z,49.45
2024-01-16T01:41:27.240Z,52.63
2024-01-16T01:46:29.959Z,51.38
2024-01-16T01:51:32.534Z,50.28
2024-01-16T01:56:34.951Z,49.83
2024-01-16T02:01:37.137Z,49.53
2024-01-16T02:06:39.311Z,51.83
2024-01-16T02:11:42.229Z,49.55
2024-01-16T02:16:44.439Z,48.97
2024-01-16T02:21:51.408Z,48.10
2024-01-16T02:26:54.010Z,46.95
2024-01-16T02:31:56.163Z,49.05
2024-01-16T02:36:58.306Z,48.15
2024-01-16T02:42:00.753Z,47.88
2024-01-16T02:47:02.993Z,52.65
2024-01-16T02:52:05.336Z,49.33
2024-01-16T02:57:07.493Z,48.20
2024-01-16T03:02:09.736Z,51.40
2024-01-16T03:07:12.859Z,48.53
2024-01-16T03:12:15.028Z,48.33
2024-01-16T03:17:17.221Z,49.10
2024-01-16T03:22:19.462Z,45.55
2024-01-16T03:27:21.632Z,49.03
2024-01-16T03:32:23.860Z,48.72
2024-01-16T03:37:26.137Z,45.33
2024-01-16T03:42:28.509Z,45.25
2024-01-16T03:47:30.763Z,46.03
2024-01-16T03:52:33.022Z,48.08
2024-01-16T03:57:35.145Z,46.17
2024-01-16T04:02:39.068Z,46.25
2024-01-16T04:07:41.319Z,45.15
2024-01-16T04:12:43.511Z,47.10
2024-01-16T04:17:45.733Z,45.08
2024-01-16T04:22:48.387Z,46.72
2024-01-16T04:27:50.645Z,48.15
2024-01-16T04:32:53.012Z,52.30
2024-01-16T04:37:55.254Z,51.70
2024-01-16T04:42:57.453Z,51.75
2024-01-16T04:47:59.613Z,47.05
2024-01-16T04:53:02.135Z,45.40
2024-01-16T04:58:04.464Z,47.90
2024-01-16T05:03:06.927Z,48.63
2024-01-16T05:08:09.212Z,47.08
2024-01-16T05:13:11.795Z,47.25
2024-01-16T05:18:14.118Z,46.10
2024-01-16T05:23:16.410Z,46.47
2024-01-16T05:28:18.873Z,44.60
2024-01-16T05:33:21.166Z,47.00
2024-01-16T05:38:23.378Z,47.58
2024-01-16T05:43:25.567Z,46.25
2024-01-16T05:48:27.860Z,44.03
2024-01-16T05:53:30.067Z,44.17
2024-01-16T05:58:32.339Z,43.55
2024-01-16T06:03:34.713Z,43.10
2024-01-16T06:08:37.478Z,42.90
2024-01-16T06:13:39.883Z,43.05
2024-01-16T06:18:42.165Z,43.05
2024-01-16T06:23:44.442Z,40.47
2024-01-16T06:28:46.690Z,44.00
2024-01-16T06:33:49.171Z,40.05
2024-01-16T06:38:51.490Z,44.97
2024-01-16T06:43:53.941Z,39.92
2024-01-16T06:48:56.322Z,42.00
2024-01-16T06:53:58.621Z,40.65
2024-01-16T06:59:00.859Z,40.88
2024-01-16T07:04:03.413Z,40.63
2024-01-16T07:09:05.615Z,39.38
2024-01-16T07:14:08.777Z,40.47
2024-01-16T07:19:11.043Z,39.63
2024-01-16T07:24:13.310Z,39.60
2024-01-16T07:29:15.531Z,41.45
2024-01-16T07:34:17.787Z,35.85
2024-01-16T07:39:19.955Z,39.60
2024-01-16T07:44:22.098Z,36.28
2024-01-16T07:49:24.360Z,39.53
2024-01-16T07:54:26.561Z,37.72
2024-01-16T07:59:28.813Z,37.33
2024-01-16T08:04:30.950Z,31.08
2024-01-16T08:09:33.225Z,36.55
2024-01-16T08:14:35.654Z,37.42
2024-01-16T08:19:37.938Z,36.97
2024-01-16T08:24:40.662Z,36.47
2024-01-16T08:29:43.132Z,37.38
2024-01-16T08:34:45.424Z,35.42
2024-01-16T08:39:47.848Z,39.20
2024-01-16T08:44:50.015Z,38.50
2024-01-16T08:49:52.249Z,34.92
2024-01-16T08:54:54.449Z,36.83
2024-01-16T08:59:56.739Z,38.83
2024-01-16T09:04:59.365Z,36.67
2024-01-16T09:10:01.778Z,34.40
2024-01-16T09:15:03.940Z,35.70
2024-01-16T09:20:06.527Z,37.45
2024-01-16T09:25:08.891Z,38.03
2024-01-16T09:30:11.285Z,36.92
2024-01-16T09:35:13.514Z,36.55
2024-01-16T09:40:15.880Z,35.60
2024-01-16T09:45:21.392Z,36.40
2024-01-16T09:50:24.057Z,35.30
2024-01-16T09:55:26.286Z,37.65
2024-01-16T10:00:29.004Z,37.10
2024-01-16T10:05:32.312Z,33.65
2024-01-16T10:10:42.791Z,35.78
2024-01-16T10:15:52.735Z,33.72
2024-01-16T10:20:55.660Z,34.22
2024-01-16T10:26:14.024Z,29.77
2024-01-16T10:31:16.419Z,34.13
2024-01-16T10:36:18.974Z,33.33
2024-01-16T10:41:21.187Z,33.13
2024-01-16T10:46:25.133Z,31.00
2024-01-16T10:51:28.411Z,31.02
2024-01-16T10:56:31.039Z,31.30
2024-01-16T11:01:33.531Z,29.67
2024-01-16T11:06:36.023Z,29.52
2024-01-16T11:11:38.982Z,35.30
2024-01-16T11:16:41.661Z,28.67
2024-01-16T11:21:44.611Z,29.30
2024-01-16T11:26:46.917Z,26.75
2024-01-16T11:31:49.202Z,29.08
2024-01-16T11:36:52.513Z,27.30
2024-01-16T11:41:55.694Z,26.55
2024-01-16T11:47:04.703Z,25.35
2024-01-16T11:52:06.911Z,27.92
2024-01-16T11:57:09.172Z,27.63
2024-01-16T12:02:17.243Z,25.48
2024-01-16T12:07:19.771Z,25.88
2024-01-16T12:12:22.306Z,27.23
2024-01-16T12:17:24.876Z,24.98
2024-01-16T12:22:27.181Z,25.58
2024-01-16T12:27:29.382Z,26.00
2024-01-16T12:32:31.654Z,26.02
2024-01-16T12:37:33.832Z,25.27
2024-01-16T12:42:36.078Z,23.45
2024-01-16T12:47:38.307Z,24.27
2024-01-16T12:52:40.633Z,27.42
2024-01-16T12:57:42.840Z,24.48
2024-01-16T13:02:50.772Z,27.23
2024-01-16T13:08:01.488Z,25.58
2024-01-16T13:13:19.608Z,24.02
2024-01-16T13:18:25.583Z,23.77
2024-01-16T13:23:28.314Z,23.10
2024-01-16T13:28:30.803Z,22.30
2024-01-16T13:33:33.041Z,22.58
2024-01-16T13:38:35.581Z,26.55
2024-01-16T13:43:37.782Z,22.63
2024-01-16T13:48:40.090Z,24.02
2024-01-16T13:53:42.363Z,26.00
2024-01-16T13:58:44.564Z,23.58
2024-01-16T14:03:46.954Z,24.55
2024-01-16T14:08:49.245Z,24.63
2024-01-16T14:13:51.486Z,23.27
2024-01-16T14:18:53.718Z,23.90
2024-01-16T14:23:55.957Z,23.35
2024-01-16T14:28:58.084Z,25.52
2024-01-16T14:34:00.310Z,23.35
2024-01-16T14:39:02.625Z,23.67
2024-01-16T14:44:04.869Z,23.90
2024-01-16T14:49:07.144Z,24.23
2024-01-16T14:54:09.673Z,23.60
2024-01-16T14:59:14.370Z,23.70
2024-01-16T15:04:18.556Z,22.10
2024-01-16T15:09:20.903Z,23.35
2024-01-16T15:14:23.182Z,21.88
2024-01-16T15:19:25.706Z,23.80
2024-01-16T15:24:27.964Z,23.45
2024-01-16T15:29:30.154Z,22.77
2024-01-16T15:34:32.319Z,22.55
2024-01-16T15:39:34.583Z,22.15
2024-01-16T15:44:36.815Z,24.77
2024-01-16T15:49:39.049Z,23.98
2024-01-16T15:54:41.642Z,25.08
2024-01-16T15:59:44.152Z,22.88
2024-01-16T16:04:46.437Z,22.85
2024-01-16T16:09:48.552Z,21.90
2024-01-16T16:14:51.076Z,22.80
2024-01-16T16:19:53.330Z,24.40
2024-01-16T16:24:55.507Z,23.08
2024-01-16T16:29:58.430Z,23.23
2024-01-16T16:35:00.661Z,23.67
2024-01-16T16:40:02.882Z,23.02
2024-01-16T16:45:05.381Z,26.63
2024-01-16T16:50:07.598Z,27.02
2024-01-16T16:55:09.784Z,26.10
2024-01-16T17:00:12.281Z,29.38
2024-01-16T17:05:14.813Z,33.67
2024-01-16T17:10:17.143Z,34.50
2024-01-16T17:15:19.515Z,34.78
2024-01-16T17:20:22.886Z,33.67
2024-01-16T17:25:25.200Z,39.22
2024-01-16T17:30:27.434Z,39.90
2024-01-16T17:35:29.607Z,42.40
2024-01-16T17:40:32.043Z,42.17
2024-01-16T17:45:34.267Z,40.03
2024-01-16T17:50:37.976Z,43.17
2024-01-16T17:55:40.162Z,40.57
2024-01-16T18:00:42.378Z,39.38
2024-01-16T18:05:44.653Z,44.03
2024-01-16T18:10:46.846Z,43.53
2024-01-16T18:15:51.592Z,42.72
2024-01-16T18:20:53.877Z,44.83
2024-01-16T18:25:58.845Z,44.28
2024-01-16T18:31:02.755Z,48.53
2024-01-16T18:36:05.019Z,49.30
2024-01-16T18:41:10.431Z,44.15
2024-01-16T18:46:16.518Z,45.97
2024-01-16T18:51:19.294Z,43.65
2024-01-16T18:56:23.616Z,42.65
2024-01-16T19:01:27.952Z,47.08
2024-01-16T19:06:30.364Z,40.10
2024-01-16T19:11:38.676Z,43.08
2024-01-16T19:16:45.299Z,41.45
2024-01-16T19:21:50.212Z,42.28
2024-01-16T19:26:52.417Z,42.42
2024-01-16T19:31:54.547Z,41.67
2024-01-16T19:36:56.658Z,42.47
2024-01-16T19:42:01.378Z,39.10
2024-01-16T19:47:03.644Z,41.03
2024-01-16T19:52:05.926Z,37.13
2024-01-16T19:57:10.921Z,38.75
2024-01-16T20:02:13.583Z,36.45
2024-01-16T20:07:15.932Z,38.70
2024-01-16T20:12:20.547Z,39.58
2024-01-16T20:17:28.111Z,42.20
2024-01-16T20:22:30.327Z,36.05
2024-01-16T20:27:32.667Z,37.50
2024-01-16T20:32:35.034Z,38.03
2024-01-16T20:37:37.429Z,34.85
2024-01-16T20:42:39.849Z,34.72
2024-01-16T20:47:44.889Z,37.67
2024-01-16T20:52:47.095Z,36.15
2024-01-16T20:57:49.294Z,37.80
2024-01-16T21:02:51.477Z,35.30
2024-01-16T21:07:53.876Z,36.67
2024-01-16T21:12:56.253Z,37.25
2024-01-16T21:17:59.212Z,36.33
2024-01-16T21:23:01.493Z,35.55
2024-01-16T21:28:03.780Z,35.28
2024-01-16T21:33:06.045Z,33.92
2024-01-16T21:38:08.273Z,36.50
2024-01-16T21:43:10.456Z,36.28
2024-01-16T21:48:12.757Z,35.70
2024-01-16T21:53:15.034Z,38.83
2024-01-16T21:58:17.473Z,36.10
2024-01-16T22:03:19.912Z,35.55
2024-01-16T22:08:22.105Z,39.05
2024-01-16T22:13:24.342Z,38.13
2024-01-16T22:18:26.630Z,34.95
2024-01-16T22:23:29.436Z,36.45
2024-01-16T22:28:31.625Z,35.47
2024-01-16T22:33:34.233Z,36.20
2024-01-16T22:38:38.015Z,34.08
2024-01-16T22:43:40.335Z,36.27
2024-01-16T22:48:42.790Z,36.03
2024-01-16T22:53:45.123Z,35.65
2024-01-16T22:58:47.407Z,36.83
2024-01-16T23:03:49.584Z,35.65
2024-01-16T23:08:51.955Z,34.00
2024-01-16T23:13:54.820Z,36.35
2024-01-16T23:18:57.203Z,36.42
2024-01-16T23:23:59.581Z,36.28
2024-01-16T23:29:01.830Z,36.35
2024-01-16T23:34:04.142Z,35.00
2024-01-16T23:39:06.536Z,38.13
2024-01-16T23:44:08.892Z,39.00
2024-01-16T23:49:11.004Z,34.95
2024-01-16T23:54:13.225Z,36.00
2024-01-16T23:59:15.404Z,38.25
